createdAt,value
2017-09-01T00:00:37.945Z,1014.88
2017-09-01T00:01:46.780Z,1014.89
2017-09-01T00:02:55.609Z,1014.9
2017-09-01T00:04:04.438Z,1014.9
2017-09-01T00:05:13.274Z,1014.97
2017-09-01T00:06:22.108Z,1014.91
2017-09-01T00:07:30.942Z,1014.88
2017-09-01T00:08:39.769Z,1014.94
2017-09-01T00:09:48.600Z,1014.93
2017-09-01T00:10:57.429Z,1014.95
2017-09-01T00:12:06.264Z,1014.91
2017-09-01T00:13:15.096Z,1014.9
2017-09-01T00:14:23.935Z,1014.84
2017-09-01T00:15:32.761Z,1014.84
2017-09-01T00:16:41.589Z,1014.82
2017-09-01T00:17:50.421Z,1014.84
2017-09-01T00:18:59.253Z,1014.77
2017-09-01T00:20:08.083Z,1014.84
2017-09-01T00:21:16.913Z,1014.79
2017-09-01T00:22:25.745Z,1014.81
2017-09-01T00:23:34.580Z,1014.82
2017-09-01T00:24:43.410Z,1014.75
2017-09-01T00:25:52.242Z,1014.75
2017-09-01T00:27:01.071Z,1014.71
2017-09-01T00:28:09.902Z,1014.69
2017-09-01T00:29:18.731Z,1014.66
2017-09-01T00:30:27.558Z,1014.68
2017-09-01T00:31:36.387Z,1014.68
2017-09-01T00:32:45.218Z,1014.65
2017-09-01T00:33:54.051Z,1014.64
2017-09-01T00:35:02.872Z,1014.68
2017-09-01T00:36:11.705Z,1014.68
2017-09-01T00:37:20.534Z,1014.69
2017-09-01T00:38:29.370Z,1014.68
2017-09-01T00:39:38.522Z,1014.67
2017-09-01T00:40:47.351Z,1014.69
2017-09-01T00:41:56.179Z,1014.68
2017-09-01T00:43:05.004Z,1014.7
2017-09-01T00:44:13.840Z,1014.74
2017-09-01T00:45:22.670Z,1014.74
2017-09-01T00:46:31.499Z,1014.73
2017-09-01T00:47:40.333Z,1014.78
2017-09-01T00:48:49.160Z,1014.77
2017-09-01T00:49:57.991Z,1014.81
2017-09-01T00:51:06.821Z,1014.83
2017-09-01T00:52:15.976Z,1014.85
2017-09-01T00:53:24.806Z,1014.84
2017-09-01T00:54:33.642Z,1014.85
2017-09-01T00:55:42.469Z,1014.86
2017-09-01T00:56:51.306Z,1014.86
2017-09-01T00:58:00.137Z,1014.88
2017-09-01T00:59:08.965Z,1014.87
2017-09-01T01:00:17.798Z,1014.91
2017-09-01T01:01:26.630Z,1014.91
2017-09-01T01:02:35.463Z,1014.93
2017-09-01T01:03:44.289Z,1014.87
2017-09-01T01:04:53.118Z,1014.92
2017-09-01T01:06:01.945Z,1014.96
2017-09-01T01:07:10.778Z,1014.94
2017-09-01T01:08:19.612Z,1014.97
2017-09-01T01:09:28.439Z,1014.98
2017-09-01T01:10:37.263Z,1015.02
2017-09-01T01:11:46.092Z,1015.04
2017-09-01T01:12:54.928Z,1015.03
2017-09-01T01:14:03.761Z,1015.04
2017-09-01T01:15:12.596Z,1015.04
2017-09-01T01:16:21.423Z,1015.04
2017-09-01T01:17:30.249Z,1015.06
2017-09-01T01:18:39.086Z,1015.12
2017-09-01T01:19:47.916Z,1015.14
2017-09-01T01:20:56.748Z,1015.11
2017-09-01T01:22:05.577Z,1015.13
2017-09-01T01:23:14.406Z,1015.11
2017-09-01T01:24:23.236Z,1015.11
2017-09-01T01:25:32.067Z,1015.15
2017-09-01T01:26:40.900Z,1015.16
2017-09-01T01:27:49.725Z,1015.18
2017-09-01T01:28:58.558Z,1015.18
2017-09-01T01:30:07.393Z,1015.18
2017-09-01T01:31:16.217Z,1015.17
2017-09-01T01:32:25.049Z,1015.14
2017-09-01T01:33:33.874Z,1015.19
2017-09-01T01:34:42.709Z,1015.18
2017-09-01T01:35:51.539Z,1015.16
2017-09-01T01:37:00.366Z,1015.19
2017-09-01T01:38:09.198Z,1015.2
2017-09-01T01:39:18.024Z,1015.16
2017-09-01T01:40:26.855Z,1015.17
2017-09-01T01:41:35.687Z,1015.22
2017-09-01T01:42:44.514Z,1015.18
2017-09-01T01:43:53.347Z,1015.22
2017-09-01T01:45:02.175Z,1015.18
2017-09-01T01:46:11.333Z,1015.18
2017-09-01T01:47:20.163Z,1015.21
2017-09-01T01:48:29.318Z,1015.18
2017-09-01T01:49:38.151Z,1015.17
2017-09-01T01:50:46.982Z,1015.15
2017-09-01T01:51:55.818Z,1015.19
2017-09-01T01:53:04.647Z,1015.18
2017-09-01T01:54:13.478Z,1015.19
2017-09-01T01:55:22.304Z,1015.21
2017-09-01T01:56:31.160Z,1015.19
2017-09-01T01:57:39.959Z,1015.19
2017-09-01T01:58:48.791Z,1015.19
2017-09-01T01:59:57.622Z,1015.2
2017-09-01T02:01:06.447Z,1015.14
2017-09-01T02:02:15.281Z,1015.18
2017-09-01T02:03:24.111Z,1015.2
2017-09-01T02:04:32.939Z,1015.19
2017-09-01T02:05:41.768Z,1015.2
2017-09-01T02:06:50.596Z,1015.19
2017-09-01T02:07:59.427Z,1015.17
2017-09-01T02:09:08.260Z,1015.19
2017-09-01T02:10:17.096Z,1015.19
2017-09-01T02:11:25.920Z,1015.18
2017-09-01T02:12:34.756Z,1015.15
2017-09-01T02:13:43.581Z,1015.14
2017-09-01T02:14:52.411Z,1015.14
2017-09-01T02:16:01.241Z,1015.13
2017-09-01T02:17:10.073Z,1015.12
2017-09-01T02:18:18.903Z,1015.14
2017-09-01T02:19:27.733Z,1015.13
2017-09-01T02:20:36.567Z,1015.17
2017-09-01T02:21:45.396Z,1015.16
2017-09-01T02:22:54.229Z,1015.16
2017-09-01T02:24:03.058Z,1015.2
2017-09-01T02:25:11.885Z,1015.21
2017-09-01T02:26:20.717Z,1015.2
2017-09-01T02:27:29.547Z,1015.23
2017-09-01T02:28:38.379Z,1015.18
2017-09-01T02:29:47.212Z,1015.24
2017-09-01T02:30:56.046Z,1015.24
2017-09-01T02:32:04.872Z,1015.18
2017-09-01T02:33:13.695Z,1015.21
2017-09-01T02:34:22.528Z,1015.2
2017-09-01T02:35:31.357Z,1015.22
2017-09-01T02:36:40.184Z,1015.19
2017-09-01T02:37:49.016Z,1015.21
2017-09-01T02:38:57.846Z,1015.22
2017-09-01T02:40:06.671Z,1015.19
2017-09-01T02:41:15.831Z,1015.18
2017-09-01T02:42:24.659Z,1015.17
2017-09-01T02:43:33.497Z,1015.18
2017-09-01T02:44:42.329Z,1015.19
2017-09-01T02:45:51.152Z,1015.16
2017-09-01T02:47:00.313Z,1015.09
2017-09-01T02:48:09.479Z,1015.1
2017-09-01T02:49:18.308Z,1015.08
2017-09-01T02:50:27.139Z,1015.1
2017-09-01T02:51:35.973Z,1015.1
2017-09-01T02:52:44.797Z,1015.15
2017-09-01T02:53:53.655Z,1015.11
2017-09-01T02:55:02.462Z,1015.07
2017-09-01T02:56:11.288Z,1015.05
2017-09-01T02:57:20.122Z,1015.03
2017-09-01T02:58:28.946Z,1014.97
2017-09-01T02:59:37.777Z,1014.96
2017-09-01T03:00:46.603Z,1014.95
2017-09-01T03:01:55.429Z,1014.95
2017-09-01T03:03:04.259Z,1014.95
2017-09-01T03:04:13.088Z,1014.93
2017-09-01T03:05:21.921Z,1014.96
2017-09-01T03:06:30.748Z,1014.95
2017-09-01T03:07:39.577Z,1014.97
2017-09-01T03:08:48.406Z,1014.98
2017-09-01T03:09:57.240Z,1015.02
2017-09-01T03:11:06.065Z,1014.99
2017-09-01T03:12:14.904Z,1015.01
2017-09-01T03:13:23.735Z,1015.02
2017-09-01T03:14:32.560Z,1015.04
2017-09-01T03:15:41.390Z,1015.07
2017-09-01T03:16:50.549Z,1015.06
2017-09-01T03:17:59.379Z,1015.03
2017-09-01T03:19:08.207Z,1015.06
2017-09-01T03:20:17.035Z,1015.03
2017-09-01T03:21:25.861Z,1015.07
2017-09-01T03:22:34.693Z,1015.03
2017-09-01T03:23:43.525Z,1015.02
2017-09-01T03:24:52.355Z,1015.03
2017-09-01T03:26:01.186Z,1015.02
2017-09-01T03:27:10.010Z,1014.99
2017-09-01T03:28:18.838Z,1015.04
2017-09-01T03:29:27.674Z,1015.04
2017-09-01T03:30:36.498Z,1015.02
2017-09-01T03:31:45.665Z,1015.03
2017-09-01T03:32:54.492Z,1015.08
2017-09-01T03:34:03.325Z,1015.1
2017-09-01T03:35:12.154Z,1015.16
2017-09-01T03:36:20.981Z,1015.2
2017-09-01T03:37:29.808Z,1015.16
2017-09-01T03:38:38.634Z,1015.19
2017-09-01T03:39:47.464Z,1015.19
2017-09-01T03:40:56.295Z,1015.19
2017-09-01T03:42:05.129Z,1015.16
2017-09-01T03:43:14.279Z,1015.17
2017-09-01T03:44:23.104Z,1015.2
2017-09-01T03:45:31.937Z,1015.21
2017-09-01T03:46:40.765Z,1015.24
2017-09-01T03:47:49.591Z,1015.27
2017-09-01T03:48:58.423Z,1015.29
2017-09-01T03:50:07.252Z,1015.32
2017-09-01T03:51:16.075Z,1015.31
2017-09-01T03:52:24.908Z,1015.34
2017-09-01T03:53:33.743Z,1015.32
2017-09-01T03:54:42.573Z,1015.35
2017-09-01T03:55:51.401Z,1015.33
2017-09-01T03:57:00.231Z,1015.37
2017-09-01T03:58:09.059Z,1015.3
2017-09-01T03:59:17.890Z,1015.36
2017-09-01T04:00:26.721Z,1015.31
2017-09-01T04:01:35.548Z,1015.31
2017-09-01T04:02:44.706Z,1015.29
2017-09-01T04:03:53.534Z,1015.29
2017-09-01T04:05:02.360Z,1015.31
2017-09-01T04:06:11.193Z,1015.37
2017-09-01T04:07:20.019Z,1015.35
2017-09-01T04:08:28.845Z,1015.34
2017-09-01T04:09:37.678Z,1015.34
2017-09-01T04:10:46.505Z,1015.31
2017-09-01T04:11:55.335Z,1015.32
2017-09-01T04:13:04.163Z,1015.34
2017-09-01T04:14:12.991Z,1015.35
2017-09-01T04:15:21.827Z,1015.36
2017-09-01T04:16:30.651Z,1015.37
2017-09-01T04:17:39.804Z,1015.41
2017-09-01T04:18:48.629Z,1015.37
2017-09-01T04:19:57.459Z,1015.35
2017-09-01T04:21:06.288Z,1015.36
2017-09-01T04:22:15.118Z,1015.36
2017-09-01T04:23:23.951Z,1015.44
2017-09-01T04:24:32.781Z,1015.41
2017-09-01T04:25:41.609Z,1015.5
2017-09-01T04:26:50.436Z,1015.44
2017-09-01T04:27:59.270Z,1015.51
2017-09-01T04:29:08.101Z,1015.53
2017-09-01T04:30:16.928Z,1015.59
2017-09-01T04:31:25.757Z,1015.58
2017-09-01T04:32:34.904Z,1015.57
2017-09-01T04:33:43.731Z,1015.58
2017-09-01T04:34:52.563Z,1015.56
2017-09-01T04:36:01.394Z,1015.56
2017-09-01T04:37:10.225Z,1015.56
2017-09-01T04:38:19.050Z,1015.54
2017-09-01T04:39:27.878Z,1015.56
2017-09-01T04:40:36.704Z,1015.62
2017-09-01T04:41:45.535Z,1015.57
2017-09-01T04:42:54.360Z,1015.6
2017-09-01T04:44:03.188Z,1015.63
2017-09-01T04:45:12.021Z,1015.63
2017-09-01T04:46:20.847Z,1015.67
2017-09-01T04:47:29.680Z,1015.67
2017-09-01T04:48:38.512Z,1015.64
2017-09-01T04:49:47.340Z,1015.66
2017-09-01T04:50:56.166Z,1015.67
2017-09-01T04:52:04.995Z,1015.65
2017-09-01T04:53:13.825Z,1015.64
2017-09-01T04:54:22.655Z,1015.72
2017-09-01T04:55:31.488Z,1015.7
2017-09-01T04:56:40.316Z,1015.67
2017-09-01T04:57:49.142Z,1015.68
2017-09-01T04:58:57.973Z,1015.72
2017-09-01T05:00:06.805Z,1015.74
2017-09-01T05:01:15.633Z,1015.72
2017-09-01T05:02:24.462Z,1015.76
2017-09-01T05:03:33.287Z,1015.75
2017-09-01T05:04:42.115Z,1015.73
2017-09-01T05:05:50.949Z,1015.73
2017-09-01T05:06:59.780Z,1015.72
2017-09-01T05:08:08.609Z,1015.76
2017-09-01T05:09:17.441Z,1015.72
2017-09-01T05:10:26.263Z,1015.78
2017-09-01T05:11:35.418Z,1015.78
2017-09-01T05:12:44.250Z,1015.78
2017-09-01T05:13:53.081Z,1015.78
2017-09-01T05:15:01.912Z,1015.77
2017-09-01T05:16:10.743Z,1015.76
2017-09-01T05:17:19.572Z,1015.75
2017-09-01T05:18:28.405Z,1015.73
2017-09-01T05:19:37.236Z,1015.74
2017-09-01T05:20:46.066Z,1015.71
2017-09-01T05:21:54.891Z,1015.74
2017-09-01T05:23:03.723Z,1015.74
2017-09-01T05:24:12.550Z,1015.73
2017-09-01T05:25:21.383Z,1015.75
2017-09-01T05:26:30.210Z,1015.75
2017-09-01T05:27:39.037Z,1015.74
2017-09-01T05:28:47.863Z,1015.75
2017-09-01T05:29:56.694Z,1015.74
2017-09-01T05:31:05.525Z,1015.73
2017-09-01T05:32:14.358Z,1015.75
2017-09-01T05:33:23.181Z,1015.75
2017-09-01T05:34:32.013Z,1015.73
2017-09-01T05:35:41.159Z,1015.76
2017-09-01T05:36:49.995Z,1015.72
2017-09-01T05:37:58.821Z,1015.79
2017-09-01T05:39:07.651Z,1015.82
2017-09-01T05:40:16.485Z,1015.84
2017-09-01T05:41:25.309Z,1015.84
2017-09-01T05:42:34.141Z,1015.86
2017-09-01T05:43:42.976Z,1015.86
2017-09-01T05:44:51.803Z,1015.91
2017-09-01T05:46:00.631Z,1015.89
2017-09-01T05:47:09.456Z,1015.93
2017-09-01T05:48:18.286Z,1015.88
2017-09-01T05:49:27.118Z,1015.91
2017-09-01T05:50:36.277Z,1015.92
2017-09-01T05:51:45.103Z,1015.94
2017-09-01T05:52:53.931Z,1015.93
2017-09-01T05:54:02.762Z,1015.93
2017-09-01T05:55:11.592Z,1015.92
2017-09-01T05:56:20.428Z,1015.87
2017-09-01T05:57:29.278Z,1015.9
2017-09-01T05:58:38.760Z,1015.88
2017-09-01T05:59:47.593Z,1015.88
2017-09-01T06:00:56.424Z,1015.84
2017-09-01T06:02:05.257Z,1015.83
2017-09-01T06:03:14.415Z,1015.83
2017-09-01T06:04:23.568Z,1015.83
2017-09-01T06:05:32.396Z,1015.84
2017-09-01T06:06:41.227Z,1015.81
2017-09-01T06:07:50.055Z,1015.83
2017-09-01T06:08:58.883Z,1015.86
2017-09-01T06:10:07.716Z,1015.87
2017-09-01T06:11:16.543Z,1015.86
2017-09-01T06:12:25.375Z,1015.82
2017-09-01T06:13:34.205Z,1015.86
2017-09-01T06:14:43.036Z,1015.86
2017-09-01T06:15:51.862Z,1015.86
2017-09-01T06:17:00.687Z,1015.81
2017-09-01T06:18:09.524Z,1015.82
2017-09-01T06:19:18.674Z,1015.85
2017-09-01T06:20:27.505Z,1015.86
2017-09-01T06:21:36.329Z,1015.89
2017-09-01T06:22:45.159Z,1015.93
2017-09-01T06:23:53.987Z,1015.97
2017-09-01T06:25:02.819Z,1015.97
2017-09-01T06:26:11.649Z,1015.98
2017-09-01T06:27:20.478Z,1015.99
2017-09-01T06:28:29.306Z,1016
2017-09-01T06:29:38.136Z,1015.99
2017-09-01T06:30:46.965Z,1015.95
2017-09-01T06:31:56.126Z,1015.93
2017-09-01T06:33:04.953Z,1015.94
2017-09-01T06:34:13.781Z,1015.93
2017-09-01T06:35:22.939Z,1015.92
2017-09-01T06:36:31.771Z,1015.9
2017-09-01T06:37:40.599Z,1015.9
2017-09-01T06:38:49.428Z,1015.92
2017-09-01T06:39:58.262Z,1015.9
2017-09-01T06:41:07.089Z,1015.91
2017-09-01T06:42:15.915Z,1015.95
2017-09-01T06:43:24.744Z,1015.97
2017-09-01T06:44:33.574Z,1015.98
2017-09-01T06:45:42.411Z,1015.95
2017-09-01T06:46:51.239Z,1015.97
2017-09-01T06:48:00.069Z,1015.96
2017-09-01T06:49:08.898Z,1015.98
2017-09-01T06:50:17.730Z,1015.94
2017-09-01T06:51:26.880Z,1015.95
2017-09-01T06:52:35.715Z,1015.93
2017-09-01T06:53:44.545Z,1015.93
2017-09-01T06:54:53.373Z,1015.93
2017-09-01T06:56:02.202Z,1015.94
2017-09-01T06:57:11.038Z,1015.96
2017-09-01T06:58:19.864Z,1015.98
2017-09-01T06:59:28.697Z,1015.94
2017-09-01T07:00:37.522Z,1016.02
2017-09-01T07:01:46.350Z,1016.04
2017-09-01T07:02:55.184Z,1016.07
2017-09-01T07:04:04.013Z,1016.05
2017-09-01T07:05:12.843Z,1016.02
2017-09-01T07:06:21.674Z,1016.05
2017-09-01T07:07:30.499Z,1016.03
2017-09-01T07:08:39.650Z,1016.01
2017-09-01T07:09:48.487Z,1016.02
2017-09-01T07:10:57.318Z,1016.07
2017-09-01T07:12:06.143Z,1016.03
2017-09-01T07:13:14.976Z,1016.05
2017-09-01T07:14:23.805Z,1016.06
2017-09-01T07:15:32.639Z,1016.05
2017-09-01T07:16:41.466Z,1016.07
2017-09-01T07:17:50.300Z,1016.06
2017-09-01T07:18:59.129Z,1016.05
2017-09-01T07:20:07.961Z,1016.07
2017-09-01T07:21:16.783Z,1016.07
2017-09-01T07:22:25.616Z,1016.08
2017-09-01T07:23:34.446Z,1016.12
2017-09-01T07:24:43.277Z,1016.13
2017-09-01T07:25:52.109Z,1016.1
2017-09-01T07:27:00.940Z,1016.1
2017-09-01T07:28:09.770Z,1016.11
2017-09-01T07:29:18.599Z,1016.08
2017-09-01T07:30:27.427Z,1016.1
2017-09-01T07:31:36.254Z,1016.14
2017-09-01T07:32:45.090Z,1016.17
2017-09-01T07:33:53.927Z,1016.16
2017-09-01T07:35:03.074Z,1016.18
2017-09-01T07:36:11.905Z,1016.13
2017-09-01T07:37:20.731Z,1016.13
2017-09-01T07:38:29.562Z,1016.11
2017-09-01T07:39:38.400Z,1016.14
2017-09-01T07:40:47.228Z,1016.15
2017-09-01T07:41:56.058Z,1016.11
2017-09-01T07:43:04.887Z,1016.14
2017-09-01T07:44:13.726Z,1016.12
2017-09-01T07:45:22.551Z,1016.12
2017-09-01T07:46:31.387Z,1016.09
2017-09-01T07:47:40.536Z,1016.09
2017-09-01T07:48:49.364Z,1016.08
2017-09-01T07:49:58.200Z,1016.08
2017-09-01T07:51:07.028Z,1016.08
2017-09-01T07:52:15.861Z,1016.1
2017-09-01T07:53:24.690Z,1016.09
2017-09-01T07:54:33.522Z,1016.08
2017-09-01T07:55:42.352Z,1016.07
2017-09-01T07:56:51.184Z,1016.06
2017-09-01T07:58:00.040Z,1016.03
2017-09-01T07:59:08.844Z,1016.11
2017-09-01T08:00:17.675Z,1016.06
2017-09-01T08:01:26.502Z,1016.07
2017-09-01T08:02:35.333Z,1016.01
2017-09-01T08:03:44.165Z,1016.03
2017-09-01T08:04:52.998Z,1016.02
2017-09-01T08:06:01.829Z,1016.05
2017-09-01T08:07:10.657Z,1016.08
2017-09-01T08:08:19.492Z,1016.06
2017-09-01T08:09:28.326Z,1016.06
2017-09-01T08:10:37.155Z,1016.06
2017-09-01T08:11:45.987Z,1016.05
2017-09-01T08:12:55.139Z,1016.07
2017-09-01T08:14:03.975Z,1016.05
2017-09-01T08:15:12.809Z,1016.04
2017-09-01T08:16:21.640Z,1016
2017-09-01T08:17:30.467Z,1015.99
2017-09-01T08:18:39.300Z,1016
2017-09-01T08:19:48.126Z,1016.02
2017-09-01T08:20:56.959Z,1016.04
2017-09-01T08:22:05.794Z,1016.04
2017-09-01T08:23:14.623Z,1016.06
2017-09-01T08:24:23.451Z,1016.08
2017-09-01T08:25:32.289Z,1016.01
2017-09-01T08:26:41.119Z,1016.02
2017-09-01T08:27:49.946Z,1016.04
2017-09-01T08:28:58.776Z,1016.03
2017-09-01T08:30:07.607Z,1016.02
2017-09-01T08:31:16.436Z,1016
2017-09-01T08:32:25.266Z,1015.94
2017-09-01T08:33:34.098Z,1015.88
2017-09-01T08:34:42.932Z,1015.88
2017-09-01T08:35:51.767Z,1015.89
2017-09-01T08:37:00.600Z,1015.94
2017-09-01T08:38:09.425Z,1015.88
2017-09-01T08:39:18.258Z,1015.9
2017-09-01T08:40:27.088Z,1015.91
2017-09-01T08:41:35.920Z,1015.91
2017-09-01T08:42:44.750Z,1015.88
2017-09-01T08:43:53.578Z,1015.95
2017-09-01T08:45:02.403Z,1015.96
2017-09-01T08:46:11.241Z,1015.92
2017-09-01T08:47:20.074Z,1015.98
2017-09-01T08:48:28.902Z,1015.87
2017-09-01T08:49:37.732Z,1015.86
2017-09-01T08:50:46.558Z,1015.88
2017-09-01T08:51:55.391Z,1015.84
2017-09-01T08:53:04.229Z,1015.83
2017-09-01T08:54:13.057Z,1015.81
2017-09-01T08:55:21.890Z,1015.82
2017-09-01T08:56:30.723Z,1015.79
2017-09-01T08:57:39.551Z,1015.8
2017-09-01T08:58:48.390Z,1015.83
2017-09-01T08:59:57.552Z,1015.78
2017-09-01T09:01:06.382Z,1015.81
2017-09-01T09:02:15.209Z,1015.78
2017-09-01T09:03:24.046Z,1015.79
2017-09-01T09:04:32.876Z,1015.78
2017-09-01T09:05:41.708Z,1015.73
2017-09-01T09:06:50.538Z,1015.71
2017-09-01T09:07:59.368Z,1015.73
2017-09-01T09:09:08.198Z,1015.67
2017-09-01T09:10:17.029Z,1015.71
2017-09-01T09:11:25.881Z,1015.71
2017-09-01T09:12:34.693Z,1015.66
2017-09-01T09:13:43.524Z,1015.69
2017-09-01T09:14:52.357Z,1015.68
2017-09-01T09:16:01.191Z,1015.64
2017-09-01T09:17:10.025Z,1015.64
2017-09-01T09:18:18.858Z,1015.6
2017-09-01T09:19:27.686Z,1015.58
2017-09-01T09:20:36.521Z,1015.59
2017-09-01T09:21:45.676Z,1015.58
2017-09-01T09:22:54.511Z,1015.56
2017-09-01T09:24:03.346Z,1015.54
2017-09-01T09:25:12.185Z,1015.55
2017-09-01T09:26:21.011Z,1015.51
2017-09-01T09:27:29.841Z,1015.51
2017-09-01T09:28:38.671Z,1015.51
2017-09-01T09:29:47.505Z,1015.51
2017-09-01T09:30:56.337Z,1015.46
2017-09-01T09:32:05.168Z,1015.48
2017-09-01T09:33:14.002Z,1015.45
2017-09-01T09:34:22.827Z,1015.47
2017-09-01T09:35:31.662Z,1015.5
2017-09-01T09:36:40.499Z,1015.54
2017-09-01T09:37:49.327Z,1015.57
2017-09-01T09:38:58.157Z,1015.55
2017-09-01T09:40:06.985Z,1015.5
2017-09-01T09:41:15.829Z,1015.51
2017-09-01T09:42:24.661Z,1015.47
2017-09-01T09:43:33.491Z,1015.48
2017-09-01T09:44:42.324Z,1015.52
2017-09-01T09:45:51.156Z,1015.53
2017-09-01T09:46:59.990Z,1015.51
2017-09-01T09:48:08.827Z,1015.56
2017-09-01T09:49:17.661Z,1015.55
2017-09-01T09:50:26.492Z,1015.54
2017-09-01T09:51:35.320Z,1015.54
2017-09-01T09:52:44.155Z,1015.54
2017-09-01T09:53:52.989Z,1015.51
2017-09-01T09:55:01.822Z,1015.5
2017-09-01T09:56:10.652Z,1015.51
2017-09-01T09:57:19.483Z,1015.48
2017-09-01T09:58:28.318Z,1015.52
2017-09-01T09:59:37.150Z,1015.49
2017-09-01T10:00:46.632Z,1015.55
2017-09-01T10:01:55.463Z,1015.55
2017-09-01T10:03:04.296Z,1015.59
2017-09-01T10:04:13.126Z,1015.57
2017-09-01T10:05:21.961Z,1015.52
2017-09-01T10:06:30.793Z,1015.55
2017-09-01T10:07:39.621Z,1015.49
2017-09-01T10:08:48.456Z,1015.48
2017-09-01T10:09:57.286Z,1015.48
2017-09-01T10:11:06.123Z,1015.49
2017-09-01T10:12:14.958Z,1015.5
2017-09-01T10:13:23.787Z,1015.51
2017-09-01T10:14:32.618Z,1015.56
2017-09-01T10:15:41.453Z,1015.59
2017-09-01T10:16:50.284Z,1015.55
2017-09-01T10:17:59.120Z,1015.54
2017-09-01T10:19:07.958Z,1015.55
2017-09-01T10:20:16.795Z,1015.55
2017-09-01T10:21:25.616Z,1015.6
2017-09-01T10:22:34.447Z,1015.57
2017-09-01T10:23:43.284Z,1015.58
2017-09-01T10:24:52.122Z,1015.56
2017-09-01T10:26:00.955Z,1015.54
2017-09-01T10:27:10.113Z,1015.56
2017-09-01T10:28:18.943Z,1015.56
2017-09-01T10:29:27.775Z,1015.54
2017-09-01T10:30:36.611Z,1015.53
2017-09-01T10:31:45.443Z,1015.49
2017-09-01T10:32:54.280Z,1015.47
2017-09-01T10:34:03.106Z,1015.47
2017-09-01T10:35:11.934Z,1015.46
2017-09-01T10:36:20.775Z,1015.48
2017-09-01T10:37:29.609Z,1015.44
2017-09-01T10:38:38.440Z,1015.45
2017-09-01T10:39:47.271Z,1015.45
2017-09-01T10:40:56.100Z,1015.42
2017-09-01T10:42:04.938Z,1015.44
2017-09-01T10:43:13.772Z,1015.42
2017-09-01T10:44:22.609Z,1015.51
2017-09-01T10:45:31.437Z,1015.45
2017-09-01T10:46:40.273Z,1015.5
2017-09-01T10:47:49.105Z,1015.48
2017-09-01T10:48:57.936Z,1015.47
2017-09-01T10:50:06.772Z,1015.48
2017-09-01T10:51:15.606Z,1015.51
2017-09-01T10:52:24.431Z,1015.53
2017-09-01T10:53:33.267Z,1015.54
2017-09-01T10:54:42.096Z,1015.52
2017-09-01T10:55:50.933Z,1015.51
2017-09-01T10:56:59.761Z,1015.53
2017-09-01T10:58:08.600Z,1015.48
2017-09-01T10:59:17.431Z,1015.47
2017-09-01T11:00:26.266Z,1015.48
2017-09-01T11:01:35.093Z,1015.46
2017-09-01T11:02:43.927Z,1015.43
2017-09-01T11:03:52.758Z,1015.44
2017-09-01T11:05:01.589Z,1015.41
2017-09-01T11:06:10.423Z,1015.39
2017-09-01T11:07:19.253Z,1015.39
2017-09-01T11:08:28.087Z,1015.39
2017-09-01T11:09:36.915Z,1015.41
2017-09-01T11:10:45.747Z,1015.43
2017-09-01T11:11:54.581Z,1015.46
2017-09-01T11:13:03.408Z,1015.44
2017-09-01T11:14:12.240Z,1015.4
2017-09-01T11:15:21.071Z,1015.43
2017-09-01T11:16:29.903Z,1015.43
2017-09-01T11:17:38.740Z,1015.4
2017-09-01T11:18:47.892Z,1015.42
2017-09-01T11:19:56.721Z,1015.37
2017-09-01T11:21:05.562Z,1015.41
2017-09-01T11:22:14.709Z,1015.34
2017-09-01T11:23:23.541Z,1015.38
2017-09-01T11:24:32.370Z,1015.38
2017-09-01T11:25:41.201Z,1015.36
2017-09-01T11:26:50.036Z,1015.35
2017-09-01T11:27:58.865Z,1015.34
2017-09-01T11:29:07.700Z,1015.39
2017-09-01T11:30:16.533Z,1015.38
2017-09-01T11:31:25.370Z,1015.33
2017-09-01T11:32:34.199Z,1015.33
2017-09-01T11:33:43.354Z,1015.36
2017-09-01T11:34:52.188Z,1015.41
2017-09-01T11:36:01.015Z,1015.41
2017-09-01T11:37:09.848Z,1015.45
2017-09-01T11:38:18.676Z,1015.45
2017-09-01T11:39:27.513Z,1015.4
2017-09-01T11:40:36.345Z,1015.37
2017-09-01T11:41:45.174Z,1015.35
2017-09-01T11:42:54.007Z,1015.35
2017-09-01T11:44:02.841Z,1015.34
2017-09-01T11:45:11.667Z,1015.31
2017-09-01T11:46:20.499Z,1015.33
2017-09-01T11:47:29.333Z,1015.29
2017-09-01T11:48:38.153Z,1015.29
2017-09-01T11:49:46.990Z,1015.21
2017-09-01T11:50:55.824Z,1015.2
2017-09-01T11:52:04.655Z,1015.19
2017-09-01T11:53:13.488Z,1015.23
2017-09-01T11:54:22.318Z,1015.18
2017-09-01T11:55:31.153Z,1015.18
2017-09-01T11:56:39.984Z,1015.21
2017-09-01T11:57:48.819Z,1015.19
2017-09-01T11:58:57.648Z,1015.21
2017-09-01T12:00:06.486Z,1015.18
2017-09-01T12:01:15.313Z,1015.19
2017-09-01T12:02:24.145Z,1015.17
2017-09-01T12:03:32.982Z,1015.18
2017-09-01T12:04:41.813Z,1015.19
2017-09-01T12:05:50.646Z,1015.19
2017-09-01T12:06:59.477Z,1015.17
2017-09-01T12:08:08.309Z,1015.27
2017-09-01T12:09:17.140Z,1015.27
2017-09-01T12:10:25.970Z,1015.33
2017-09-01T12:11:34.804Z,1015.34
2017-09-01T12:12:43.634Z,1015.32
2017-09-01T12:13:52.473Z,1015.28
2017-09-01T12:15:01.299Z,1015.27
2017-09-01T12:16:10.131Z,1015.27
2017-09-01T12:17:19.288Z,1015.23
2017-09-01T12:18:28.452Z,1015.27
2017-09-01T12:19:37.277Z,1015.21
2017-09-01T12:20:46.107Z,1015.22
2017-09-01T12:21:54.941Z,1015.12
2017-09-01T12:23:03.772Z,1015.14
2017-09-01T12:24:12.608Z,1015.08
2017-09-01T12:25:21.438Z,1015.13
2017-09-01T12:26:30.270Z,1015.12
2017-09-01T12:27:39.094Z,1015.13
2017-09-01T12:28:47.929Z,1015.1
2017-09-01T12:29:56.759Z,1015.1
2017-09-01T12:31:05.593Z,1015.12
2017-09-01T12:32:14.427Z,1015.19
2017-09-01T12:33:23.254Z,1015.18
2017-09-01T12:34:32.413Z,1015.16
2017-09-01T12:35:41.601Z,1015.11
2017-09-01T12:36:50.436Z,1015.13
2017-09-01T12:37:59.269Z,1015.08
2017-09-01T12:39:08.098Z,1015.15
2017-09-01T12:40:16.931Z,1015.12
2017-09-01T12:41:25.764Z,1015.09
2017-09-01T12:42:34.601Z,1015.1
2017-09-01T12:43:43.427Z,1015.12
2017-09-01T12:44:52.260Z,1015.1
2017-09-01T12:46:01.094Z,1015.12
2017-09-01T12:47:09.926Z,1015.13
2017-09-01T12:48:18.752Z,1015.13
2017-09-01T12:49:27.583Z,1015.15
2017-09-01T12:50:36.416Z,1015.17
2017-09-01T12:51:45.249Z,1015.13
2017-09-01T12:52:54.085Z,1015.06
2017-09-01T12:54:02.912Z,1015.09
2017-09-01T12:55:11.742Z,1015.13
2017-09-01T12:56:20.571Z,1015.07
2017-09-01T12:57:29.406Z,1015.05
2017-09-01T12:58:38.234Z,1015.07
2017-09-01T12:59:47.067Z,1015.04
2017-09-01T13:00:56.226Z,1014.99
2017-09-01T13:02:05.054Z,1015.04
2017-09-01T13:03:13.889Z,1014.99
2017-09-01T13:04:22.732Z,1014.97
2017-09-01T13:05:31.556Z,1014.97
2017-09-01T13:06:40.387Z,1014.97
2017-09-01T13:07:49.214Z,1015.02
2017-09-01T13:08:58.380Z,1015.04
2017-09-01T13:10:07.214Z,1015
2017-09-01T13:11:16.054Z,1014.98
2017-09-01T13:12:25.206Z,1014.95
2017-09-01T13:13:34.037Z,1014.96
2017-09-01T13:14:42.868Z,1014.95
2017-09-01T13:15:51.701Z,1014.94
2017-09-01T13:17:00.539Z,1014.92
2017-09-01T13:18:09.372Z,1014.92
2017-09-01T13:19:18.205Z,1014.91
2017-09-01T13:20:27.354Z,1014.86
2017-09-01T13:21:36.187Z,1014.89
2017-09-01T13:22:45.018Z,1014.8
2017-09-01T13:23:53.848Z,1014.75
2017-09-01T13:25:02.678Z,1014.77
2017-09-01T13:26:11.517Z,1014.7
2017-09-01T13:27:20.343Z,1014.71
2017-09-01T13:28:29.177Z,1014.68
2017-09-01T13:29:38.007Z,1014.68
2017-09-01T13:30:46.838Z,1014.71
2017-09-01T13:31:55.673Z,1014.69
2017-09-01T13:33:04.507Z,1014.68
2017-09-01T13:34:13.341Z,1014.69
2017-09-01T13:35:22.169Z,1014.7
2017-09-01T13:36:31.003Z,1014.71
2017-09-01T13:37:39.834Z,1014.62
2017-09-01T13:38:48.663Z,1014.61
2017-09-01T13:39:57.500Z,1014.63
2017-09-01T13:41:06.330Z,1014.62
2017-09-01T13:42:15.164Z,1014.6
2017-09-01T13:43:23.992Z,1014.66
2017-09-01T13:44:32.830Z,1014.65
2017-09-01T13:45:41.659Z,1014.6
2017-09-01T13:46:50.491Z,1014.61
2017-09-01T13:47:59.328Z,1014.6
2017-09-01T13:49:08.480Z,1014.61
2017-09-01T13:50:17.317Z,1014.65
2017-09-01T13:51:26.145Z,1014.63
2017-09-01T13:52:34.979Z,1014.59
2017-09-01T13:53:43.809Z,1014.58
2017-09-01T13:54:52.649Z,1014.59